Time;durP1;ratioP1;P1;durP2;ratioP2;P2;SDS_P1;SDS_P2;PMS_P1;PMS_P2;Temp;Humidity;BMP_temperature;BMP_pressure;BME280_temperature;BME280_humidity;BME280_pressure;Samples;Min_cycle;Max_cycle;Signal;HPM_P1;HPM_P2
2022/04/20 00:00:17;;;;;;;4.13;2.93;;;;;;;10.26;85.83;98911.38;5072704;28;20192;-79
2022/04/20 00:02:54;;;;;;;5.43;2.97;;;;;;;10.15;85.75;98913.00;5013527;28;20317;-78
2022/04/20 00:05:27;;;;;;;3.10;2.80;;;;;;;10.02;86.58;98910.31;5008728;28;20198;-79
2022/04/20 00:07:55;;;;;;;3.40;3.03;;;;;;;10.13;86.08;98905.16;5007157;28;20327;-79
2022/04/20 00:10:24;;;;;;;3.50;2.70;;;;;;;10.19;85.22;98902.09;5013856;28;20182;-80
2022/04/20 00:12:53;;;;;;;4.37;2.77;;;;;;;10.01;86.43;98905.97;5010399;28;20194;-80
2022/04/20 00:15:21;;;;;;;4.33;2.80;;;;;;;9.83;86.71;98920.38;5013205;28;20200;-79
2022/04/20 00:17:50;;;;;;;3.30;2.90;;;;;;;9.77;88.65;98913.72;5014050;28;20277;-80
2022/04/20 00:20:26;;;;;;;3.83;2.60;;;;;;;9.54;90.60;98909.03;5027933;28;20278;-79
2022/04/20 00:22:59;;;;;;;5.00;3.10;;;;;;;9.62;90.25;98912.88;5074468;28;20223;-79
2022/04/20 00:25:28;;;;;;;7.93;3.40;;;;;;;9.36;90.89;98913.69;5052735;28;20195;-79
2022/04/20 00:27:57;;;;;;;5.83;3.00;;;;;;;9.44;92.08;98912.25;5046967;28;20197;-79
2022/04/20 00:30:25;;;;;;;4.10;3.27;;;;;;;9.29;92.50;98912.41;5056346;28;20907;-79
2022/04/20 00:32:55;;;;;;;5.30;3.00;;;;;;;9.15;94.38;98915.88;5050541;28;20233;-79
2022/04/20 00:35:24;;;;;;;5.47;3.17;;;;;;;9.00;95.81;98915.06;5089524;28;20202;-79
2022/04/20 00:37:52;;;;;;;4.30;3.13;;;;;;;8.92;96.68;98919.09;4963243;28;20191;-79
2022/04/20 00:40:22;;;;;;;5.57;3.20;;;;;;;8.95;96.80;98916.28;5011438;28;20695;-79
2022/04/20 00:42:51;;;;;;;4.23;3.13;;;;;;;8.81;97.82;98909.19;5007934;28;20218;-78
2022/04/20 00:45:25;;;;;;;4.67;3.00;;;;;;;8.86;98.13;98913.25;5008985;28;20238;-79
2022/04/20 00:47:55;;;;;;;3.40;3.10;;;;;;;8.91;97.77;98917.41;5008464;28;20218;-79
2022/04/20 00:50:24;;;;;;;5.47;2.80;;;;;;;8.81;98.29;98915.31;5005935;28;20214;-79
2022/04/20 00:52:53;;;;;;;3.70;2.90;;;;;;;8.79;98.64;98913.72;5001566;28;20203;-79
2022/04/20 00:55:32;;;;;;;3.80;2.83;;;;;;;8.82;99.31;98914.38;4941910;28;20201;-79
2022/04/20 00:58:01;;;;;;;4.97;2.67;;;;;;;8.70;99.80;98909.00;5009834;28;20202;-79
2022/04/20 01:00:34;;;;;;;5.27;3.27;;;;;;;8.62;100.00;98913.88;5011029;28;20264;-80
2022/04/20 01:03:02;;;;;;;5.27;3.10;;;;;;;8.75;100.00;98914.84;5027379;28;20213;-80
2022/04/20 01:05:32;;;;;;;5.40;2.80;;;;;;;8.82;100.00;98910.91;5029992;28;20236;-80
2022/04/20 01:08:01;;;;;;;5.93;3.03;;;;;;;8.71;99.62;98914.19;4973543;28;20200;-80
2022/04/20 01:10:39;;;;;;;8.63;3.27;;;;;;;8.74;100.00;98907.88;4971690;28;20282;-79
2022/04/20 01:13:09;;;;;;;4.00;3.10;;;;;;;8.73;100.00;98911.44;4960284;28;20280;-80
2022/04/20 01:15:40;;;;;;;4.27;3.27;;;;;;;8.70;100.00;98916.94;4974232;28;20281;-79
2022/04/20 01:18:16;;;;;;;3.27;2.93;;;;;;;8.59;100.00;98907.00;4976447;28;20367;-80
2022/04/20 01:20:47;;;;;;;10.80;3.20;;;;;;;8.52;100.00;98905.69;4972531;28;20231;-80
2022/04/20 01:23:18;;;;;;;7.20;3.30;;;;;;;8.51;100.00;98903.97;4968605;28;20271;-80
2022/04/20 01:25:47;;;;;;;4.47;2.90;;;;;;;8.46;100.00;98903.38;5000985;28;20273;-80
2022/04/20 01:28:18;;;;;;;5.87;3.20;;;;;;;8.41;100.00;98905.47;5036876;28;20201;-80
2022/04/20 01:30:47;;;;;;;4.60;3.27;;;;;;;8.29;100.00;98909.63;4994001;28;20199;-80
2022/04/20 01:33:16;;;;;;;5.27;3.10;;;;;;;8.30;100.00;98914.84;4993492;28;20205;-80
2022/04/20 01:35:44;;;;;;;4.00;2.97;;;;;;;8.37;100.00;98907.41;4972807;28;20204;-80
2022/04/20 01:38:14;;;;;;;5.37;3.23;;;;;;;8.24;100.00;98901.16;4925131;28;20283;-80
2022/04/20 01:40:43;;;;;;;4.87;3.40;;;;;;;8.18;100.00;98904.97;4969520;28;20295;-80
2022/04/20 01:43:12;;;;;;;7.17;3.00;;;;;;;8.03;100.00;98900.59;4997994;28;20222;-81
2022/04/20 01:45:41;;;;;;;5.10;3.13;;;;;;;8.02;100.00;98898.91;4990025;28;20318;-80
2022/04/20 01:48:09;;;;;;;5.10;3.17;;;;;;;7.85;100.00;98909.56;4998512;28;20190;-80
2022/04/20 01:51:46;;;;;;;4.37;3.07;;;;;;;8.13;100.00;98908.84;5027758;28;20216;-80
2022/04/20 01:53:31;;;;;;;3.97;2.80;;;;;;;8.13;100.00;98904.41;5032529;28;20201;-80
2022/04/20 01:56:00;;;;;;;3.50;3.00;;;;;;;8.15;100.00;98902.53;5030148;28;20208;-80
2022/04/20 01:58:30;;;;;;;3.63;2.93;;;;;;;8.27;100.00;98914.16;4994958;28;20746;-80
2022/04/20 02:00:59;;;;;;;5.50;3.17;;;;;;;8.15;100.00;98910.44;5021740;28;20193;-80
2022/04/20 02:03:26;;;;;;;4.73;2.80;;;;;;;8.14;100.00;98905.25;4991868;28;20224;-80
2022/04/20 02:05:57;;;;;;;3.63;3.00;;;;;;;8.11;100.00;98910.72;5053159;28;21367;-80
2022/04/20 02:08:25;;;;;;;3.97;2.80;;;;;;;8.15;100.00;98906.94;5072549;28;20200;-80
2022/04/20 02:10:56;;;;;;;6.10;3.07;;;;;;;7.91;100.00;98910.09;5074720;28;20643;-80
2022/04/20 02:13:26;;;;;;;4.00;2.83;;;;;;;7.90;100.00;98912.78;5069526;28;20197;-80
2022/04/20 02:15:57;;;;;;;5.87;3.10;;;;;;;7.95;100.00;98913.38;5086122;28;20704;-81
2022/04/20 02:18:29;;;;;;;3.93;3.00;;;;;;;7.80;100.00;98909.81;5094079;28;20196;-79
2022/04/20 02:21:00;;;;;;;3.23;2.80;;;;;;;7.72;100.00;98910.28;5087823;28;20207;-80
2022/04/20 02:23:31;;;;;;;3.77;2.83;;;;;;;7.92;100.00;98910.94;5088271;28;20219;-80
2022/04/20 02:26:00;;;;;;;5.13;2.90;;;;;;;7.79;100.00;98907.28;5090039;28;20208;-81
2022/04/20 02:28:29;;;;;;;3.97;3.07;;;;;;;7.93;100.00;98907.34;5097273;28;20188;-80
2022/04/20 02:30:59;;;;;;;3.77;3.00;;;;;;;7.85;100.00;98906.94;5089976;28;20673;-80
2022/04/20 02:33:28;;;;;;;4.43;3.00;;;;;;;7.91;100.00;98904.81;5089842;28;20196;-80
2022/04/20 02:35:58;;;;;;;4.10;2.97;;;;;;;7.95;100.00;98898.41;5089385;28;20206;-80
2022/04/20 02:38:27;;;;;;;3.70;3.00;;;;;;;7.99;100.00;98905.19;5091107;28;20191;-80
2022/04/20 02:40:55;;;;;;;4.00;2.83;;;;;;;7.83;100.00;98912.28;5089025;28;20172;-80
2022/04/20 02:43:25;;;;;;;5.77;2.73;;;;;;;7.75;100.00;98911.88;5082286;28;20192;-80
2022/04/20 02:45:53;;;;;;;3.93;2.93;;;;;;;7.79;100.00;98912.53;5070603;28;20224;-80
2022/04/20 02:48:26;;;;;;;5.33;3.20;;;;;;;7.72;100.00;98912.91;5069662;28;20184;-80
2022/04/20 02:50:55;;;;;;;5.00;2.90;;;;;;;7.93;100.00;98913.47;5073853;28;20243;-80
2022/04/20 02:53:31;;;;;;;4.43;2.97;;;;;;;7.81;100.00;98913.28;5092811;28;20188;-81
2022/04/20 02:56:00;;;;;;;5.53;3.00;;;;;;;7.74;100.00;98915.44;5091030;28;20199;-80
2022/04/20 02:58:32;;;;;;;4.13;2.87;;;;;;;7.71;100.00;98920.88;5093831;28;20196;-80
2022/04/20 03:01:04;;;;;;;6.23;2.83;;;;;;;7.74;100.00;98918.09;5088422;28;20195;-80
2022/04/20 03:03:32;;;;;;;3.77;3.17;;;;;;;7.71;100.00;98913.81;5095835;28;20200;-79
2022/04/20 03:06:06;;;;;;;7.27;3.10;;;;;;;7.80;100.00;98917.72;5091123;28;20199;-80
2022/04/20 03:08:35;;;;;;;4.03;2.90;;;;;;;7.70;100.00;98912.13;5064072;28;20274;-80
2022/04/20 03:11:04;;;;;;;3.57;2.57;;;;;;;7.70;100.00;98914.75;5086281;28;20187;-80
2022/04/20 03:13:34;;;;;;;3.70;2.60;;;;;;;7.68;100.00;98916.63;5064534;28;20195;-80
2022/04/20 03:16:03;;;;;;;6.07;2.70;;;;;;;7.58;100.00;98925.16;5085171;28;20187;-81
2022/04/20 03:18:35;;;;;;;4.77;2.57;;;;;;;7.51;100.00;98918.50;5084366;28;20198;-80
2022/04/20 03:21:04;;;;;;;4.40;3.17;;;;;;;7.50;100.00;98925.56;5092328;28;20192;-79
2022/04/20 03:23:33;;;;;;;5.97;2.90;;;;;;;7.64;100.00;98920.38;5094958;28;20191;-80
2022/04/20 03:26:03;;;;;;;4.87;3.13;;;;;;;7.44;100.00;98926.75;5097223;28;20223;-80
2022/04/20 03:28:33;;;;;;;2.93;2.47;;;;;;;7.44;100.00;98923.28;5075210;28;20199;-80
2022/04/20 03:31:03;;;;;;;3.33;2.70;;;;;;;7.44;100.00;98932.03;5031573;28;20197;-80
2022/04/20 03:33:32;;;;;;;4.20;2.67;;;;;;;7.23;100.00;98935.81;5029122;28;20220;-79
2022/04/20 03:36:01;;;;;;;4.17;2.77;;;;;;;7.15;100.00;98933.63;5029671;28;20277;-80
2022/04/20 03:38:31;;;;;;;4.03;2.70;;;;;;;7.22;100.00;98944.66;5033007;28;20218;-80
2022/04/20 03:40:59;;;;;;;4.77;2.60;;;;;;;7.20;100.00;98940.41;5024084;28;20190;-80
2022/04/20 03:43:29;;;;;;;5.80;3.60;;;;;;;7.22;100.00;98939.38;5015691;28;20205;-80
2022/04/20 03:46:05;;;;;;;3.97;2.80;;;;;;;7.24;100.00;98940.19;4936508;29;20229;-80
2022/04/20 03:48:34;;;;;;;8.57;3.17;;;;;;;7.28;100.00;98939.06;4930443;28;20218;-80
2022/04/20 03:51:05;;;;;;;5.13;2.67;;;;;;;7.16;100.00;98935.31;4977808;28;20215;-80
2022/04/20 03:53:34;;;;;;;5.33;3.00;;;;;;;7.06;100.00;98943.78;4990137;28;20301;-80
2022/04/20 03:56:03;;;;;;;4.87;3.03;;;;;;;6.98;100.00;98944.19;4973044;28;20180;-80
2022/04/20 03:58:33;;;;;;;4.30;3.07;;;;;;;6.92;100.00;98939.25;4943746;29;20200;-80
2022/04/20 04:01:05;;;;;;;4.37;3.00;;;;;;;6.96;100.00;98937.31;4953140;29;20204;-80
2022/04/20 04:03:36;;;;;;;4.70;2.73;;;;;;;6.92;100.00;98949.75;4964387;28;20219;-80
2022/04/20 04:06:04;;;;;;;4.60;2.53;;;;;;;6.96;100.00;98947.84;4991328;28;20224;-80
2022/04/20 04:08:34;;;;;;;3.80;2.60;;;;;;;7.07;100.00;98946.34;4974908;28;20204;-80
2022/04/20 04:11:04;;;;;;;4.83;3.20;;;;;;;6.99;100.00;98948.53;4953508;29;20221;-80
2022/04/20 04:13:36;;;;;;;6.83;3.00;;;;;;;7.11;100.00;98949.66;4950516;28;20209;-80
2022/04/20 04:16:09;;;;;;;3.23;2.80;;;;;;;7.06;100.00;98947.28;4952168;29;20222;-80
2022/04/20 04:18:39;;;;;;;3.33;2.80;;;;;;;7.20;100.00;98946.53;4939445;29;20193;-80
2022/04/20 04:21:14;;;;;;;6.07;2.77;;;;;;;7.23;100.00;98951.63;4898987;29;20206;-80
2022/04/20 04:23:43;;;;;;;3.50;2.70;;;;;;;7.18;100.00;98948.41;4941238;29;20312;-80
2022/04/20 04:26:11;;;;;;;4.60;2.93;;;;;;;7.19;100.00;98939.56;4950373;29;20220;-79
2022/04/20 04:28:41;;;;;;;5.53;2.70;;;;;;;7.07;100.00;98938.44;4966630;28;20190;-80
2022/04/20 04:31:11;;;;;;;3.90;2.77;;;;;;;6.97;100.00;98942.50;4993796;28;20199;-80
2022/04/20 04:33:40;;;;;;;3.53;3.10;;;;;;;6.95;100.00;98948.75;4973076;28;20278;-79
2022/04/20 04:36:09;;;;;;;7.47;3.13;;;;;;;6.80;100.00;98943.38;4972430;28;20203;-80
2022/04/20 04:38:39;;;;;;;5.57;2.67;;;;;;;6.79;100.00;98948.72;4941686;28;20191;-80
2022/04/20 04:41:07;;;;;;;4.57;3.13;;;;;;;6.82;100.00;98952.03;4969909;28;20615;-80
2022/04/20 04:43:36;;;;;;;4.90;3.00;;;;;;;6.77;100.00;98954.06;5011448;28;20198;-81
2022/04/20 04:48:57;;;;;;;3.27;2.80;;;;;;;6.91;100.00;98952.50;5059332;28;20204;-80
2022/04/20 04:51:26;;;;;;;5.17;3.13;;;;;;;6.91;100.00;98945.44;5080113;27;20197;-80
2022/04/20 04:53:55;;;;;;;3.97;3.00;;;;;;;6.80;100.00;98948.63;4992519;28;20207;-80
2022/04/20 04:56:38;;;;;;;5.20;3.07;;;;;;;6.60;100.00;98952.28;4993346;28;20210;-80
2022/04/20 04:59:07;;;;;;;6.17;3.33;;;;;;;6.55;100.00;98946.41;4984349;28;20203;-80
2022/04/20 05:01:36;;;;;;;9.27;5.40;;;;;;;6.68;100.00;98949.28;4986020;28;20199;-80
2022/04/20 05:04:08;;;;;;;5.23;3.70;;;;;;;6.63;100.00;98955.69;4985627;28;20380;-80
2022/04/20 05:06:41;;;;;;;6.60;4.33;;;;;;;6.73;100.00;98947.25;4988475;28;20215;-80
2022/04/20 05:09:10;;;;;;;22.77;8.37;;;;;;;6.80;100.00;98953.03;4934693;29;20228;-80
2022/04/20 05:11:42;;;;;;;12.90;6.07;;;;;;;7.10;100.00;98956.69;4925289;28;20203;-80
2022/04/20 05:14:13;;;;;;;12.73;5.70;;;;;;;7.06;100.00;98957.81;4936387;29;20193;-80
2022/04/20 05:16:47;;;;;;;6.90;4.50;;;;;;;7.26;100.00;98954.09;4924420;29;20205;-80
2022/04/20 05:19:17;;;;;;;8.90;3.67;;;;;;;7.35;100.00;98956.25;4896890;29;20277;-79
2022/04/20 05:21:45;;;;;;;5.23;3.50;;;;;;;7.50;100.00;98959.81;4906746;29;20210;-79
2022/04/20 05:24:16;;;;;;;7.27;3.80;;;;;;;7.51;100.00;98956.25;4897732;29;20234;-80
2022/04/20 05:26:44;;;;;;;6.43;3.67;;;;;;;7.40;100.00;98959.47;4905055;29;20303;-80
2022/04/20 05:29:13;;;;;;;9.40;3.13;;;;;;;7.51;100.00;98969.41;4946579;28;20270;-79
2022/04/20 05:31:44;;;;;;;5.93;2.70;;;;;;;7.68;100.00;98955.31;4995566;28;20265;-80
2022/04/20 05:34:13;;;;;;;5.13;2.80;;;;;;;7.66;100.00;98959.84;5028284;28;20197;-80
2022/04/20 05:42:18;;;;;;;3.87;3.03;;;;;;;7.85;100.00;98972.84;5035851;28;20193;-80
2022/04/20 05:44:47;;;;;;;4.80;2.97;;;;;;;7.59;100.00;98980.41;5030642;28;20233;-80
2022/04/20 05:47:16;;;;;;;3.93;2.50;;;;;;;7.86;100.00;98972.75;5031554;28;20233;-80
2022/04/20 05:49:44;;;;;;;5.20;3.00;;;;;;;8.00;100.00;98971.97;5025817;28;20201;-80
2022/04/20 05:52:14;;;;;;;4.30;2.47;;;;;;;7.69;100.00;98980.75;5025367;28;20329;-80
2022/04/20 05:54:43;;;;;;;4.27;2.70;;;;;;;7.51;100.00;98982.59;5015859;28;20207;-80
2022/04/20 05:57:11;;;;;;;4.00;2.60;;;;;;;7.76;100.00;98976.84;4968367;28;20195;-79
2022/04/20 05:59:41;;;;;;;6.30;2.90;;;;;;;8.04;100.00;98979.63;4951840;29;20222;-80
2022/04/20 06:02:14;;;;;;;4.83;2.87;;;;;;;7.95;100.00;98981.94;4949036;29;20326;-80
2022/04/20 06:04:42;;;;;;;5.30;2.80;;;;;;;8.25;100.00;98974.06;4954270;29;20196;-80
2022/04/20 06:07:24;;;;;;;3.40;2.80;;;;;;;8.22;100.00;98983.03;4951120;29;20213;-80
2022/04/20 06:09:55;;;;;;;3.37;2.70;;;;;;;8.29;100.00;98972.94;4953629;29;20287;-81
2022/04/20 06:12:24;;;;;;;4.90;3.20;;;;;;;8.30;100.00;98967.59;4949209;29;20204;-80
2022/04/20 06:14:53;;;;;;;4.43;2.90;;;;;;;8.49;100.00;98967.41;4949028;29;20283;-78
2022/04/20 06:17:22;;;;;;;4.77;3.00;;;;;;;8.46;100.00;98974.66;4962402;28;20195;-80
2022/04/20 06:19:52;;;;;;;3.67;2.80;;;;;;;8.66;100.00;98968.19;4986110;28;20202;-79
2022/04/20 06:22:20;;;;;;;4.27;2.93;;;;;;;8.75;100.00;98967.66;5032773;28;20662;-80
2022/04/20 06:24:49;;;;;;;5.23;3.53;;;;;;;8.90;100.00;98966.75;5053612;28;20232;-80
2022/04/20 06:27:21;;;;;;;5.57;3.10;;;;;;;9.08;100.00;98970.06;5053674;28;20219;-79
2022/04/20 06:29:56;;;;;;;4.67;3.03;;;;;;;9.24;100.00;98962.88;5013819;28;20195;-80
2022/04/20 06:32:27;;;;;;;5.70;3.30;;;;;;;9.34;100.00;98965.81;4951046;29;20238;-80
2022/04/20 06:34:58;;;;;;;6.03;3.10;;;;;;;9.33;100.00;98964.09;4952459;28;20226;-80
2022/04/20 06:37:27;;;;;;;5.50;3.50;;;;;;;9.35;100.00;98972.78;4938604;29;20200;-80
2022/04/20 06:39:56;;;;;;;4.57;3.13;;;;;;;9.46;100.00;98960.63;4888195;29;20205;-80
2022/04/20 06:42:29;;;;;;;5.90;3.50;;;;;;;9.58;100.00;98969.56;4934789;28;20205;-80
2022/04/20 06:44:59;;;;;;;5.03;3.40;;;;;;;9.60;100.00;98966.81;4915375;29;20290;-80
2022/04/20 06:47:32;;;;;;;4.60;2.87;;;;;;;9.77;100.00;98966.63;4927931;28;20246;-80
2022/04/20 06:50:04;;;;;;;3.63;2.73;;;;;;;9.91;100.00;98957.78;4985246;28;20221;-80
2022/04/20 07:00:57;;;;;;;5.43;2.77;;;;;;;10.48;100.00;98953.13;5050827;28;20235;-80
2022/04/20 07:03:26;;;;;;;4.33;2.50;;;;;;;10.54;97.14;98959.84;5045620;28;20300;-80
2022/04/20 07:05:54;;;;;;;3.00;2.30;;;;;;;10.43;96.19;98954.41;5056180;28;20252;-80
2022/04/20 07:08:27;;;;;;;3.70;2.63;;;;;;;10.50;91.24;98960.97;5107554;28;20222;-81
2022/04/20 07:10:56;;;;;;;3.60;2.40;;;;;;;10.53;88.29;98963.44;5104625;28;20757;-80
2022/04/20 07:13:27;;;;;;;5.07;2.60;;;;;;;10.56;88.93;98965.88;5042845;28;20192;-81
2022/04/20 07:16:02;;;;;;;3.87;2.20;;;;;;;10.75;88.43;98971.63;5043696;28;20205;-80
2022/04/20 07:18:31;;;;;;;7.17;2.70;;;;;;;10.71;86.75;98977.22;5043939;28;20223;-80
2022/04/20 07:21:03;;;;;;;5.30;2.40;;;;;;;10.69;86.34;98971.19;5046521;28;20651;-80
2022/04/20 07:23:32;;;;;;;8.33;5.30;;;;;;;10.73;82.96;98973.53;4950701;29;20211;-80
2022/04/20 07:26:04;;;;;;;4.77;3.57;;;;;;;10.70;84.27;98971.06;4940358;29;20201;-81
2022/04/20 07:28:39;;;;;;;3.30;2.50;;;;;;;10.70;82.75;98973.72;4860485;29;20211;-79
2022/04/20 07:31:10;;;;;;;3.60;2.60;;;;;;;11.07;82.73;98969.41;4871579;29;20201;-81
2022/04/20 07:33:41;;;;;;;2.87;2.50;;;;;;;11.04;78.52;98977.59;4908674;29;20198;-82
2022/04/20 07:36:10;;;;;;;4.07;2.37;;;;;;;11.32;78.86;98983.63;4881025;29;20200;-80
2022/04/20 07:38:45;;;;;;;3.83;2.40;;;;;;;11.23;76.06;98973.66;4913016;29;20210;-80
2022/04/20 07:41:14;;;;;;;4.73;2.40;;;;;;;11.36;72.82;98978.00;4941993;28;20254;-81
2022/04/20 07:43:47;;;;;;;3.63;2.30;;;;;;;11.35;73.51;98978.94;4964001;28;20218;-80
2022/04/20 07:46:18;;;;;;;5.00;3.37;;;;;;;11.29;70.60;98973.22;5021599;28;20224;-81
2022/04/20 07:48:48;;;;;;;5.87;2.70;;;;;;;11.37;66.47;98986.78;5075367;28;20192;-80
2022/04/20 07:51:17;;;;;;;4.93;2.80;;;;;;;11.54;64.75;98981.16;5072397;28;20208;-81
2022/04/20 07:53:47;;;;;;;3.50;2.33;;;;;;;11.42;68.71;98979.38;5014254;28;20278;-81
2022/04/20 07:56:16;;;;;;;3.97;2.47;;;;;;;11.64;69.95;98978.69;5028723;28;20208;-80
2022/04/20 07:58:47;;;;;;;5.43;2.60;;;;;;;11.73;67.46;98980.69;4973162;28;20200;-80
2022/04/20 08:01:16;;;;;;;3.10;2.30;;;;;;;11.89;68.40;98986.66;4972245;28;20206;-81
2022/04/20 08:03:45;;;;;;;6.80;5.17;;;;;;;12.06;65.85;98988.06;4966942;28;20208;-81
2022/04/20 08:06:17;;;;;;;10.73;7.67;;;;;;;12.03;66.06;98988.28;4895145;29;20281;-80
2022/04/20 08:08:46;;;;;;;13.07;10.33;;;;;;;12.08;65.61;98982.66;4866020;29;20259;-80
2022/04/20 08:11:17;;;;;;;8.77;5.03;;;;;;;12.43;65.51;98991.50;4904589;29;20204;-80
2022/04/20 08:16:39;;;;;;;5.90;3.20;;;;;;;12.42;65.75;98984.50;4964366;28;20235;-80
2022/04/20 08:19:10;;;;;;;3.27;2.80;;;;;;;12.68;64.80;98979.91;4990564;28;20651;-81
2022/04/20 08:21:43;;;;;;;6.00;2.77;;;;;;;12.77;66.21;98978.38;4986743;28;20203;-81
2022/04/20 08:24:12;;;;;;;3.27;2.90;;;;;;;12.55;66.23;98984.47;4988555;28;20206;-81
2022/04/20 08:26:42;;;;;;;3.17;2.50;;;;;;;12.95;65.29;98982.28;4992536;28;20222;-81
2022/04/20 08:29:17;;;;;;;6.43;3.63;;;;;;;12.79;64.89;98979.09;4991484;28;20206;-80
2022/04/20 08:31:46;;;;;;;7.10;4.90;;;;;;;12.63;63.38;98971.41;4958367;28;20207;-81
2022/04/20 08:34:16;;;;;;;7.80;4.17;;;;;;;12.86;64.09;98977.66;4951710;29;20260;-82
2022/04/20 08:36:45;;;;;;;5.07;2.83;;;;;;;12.78;61.58;98975.59;4978353;28;20203;-79
2022/04/20 08:39:15;;;;;;;6.63;3.80;;;;;;;13.04;59.87;98973.59;5069619;28;20315;-81
2022/04/20 08:41:51;;;;;;;5.30;4.70;;;;;;;13.28;58.51;98978.84;5078918;28;20200;-81
2022/04/20 08:44:27;;;;;;;7.00;5.13;;;;;;;13.19;59.12;98971.59;5072803;28;20196;-80
2022/04/20 08:47:01;;;;;;;6.50;4.77;;;;;;;13.31;59.21;98972.44;5072895;28;20685;-81
2022/04/20 08:49:30;;;;;;;7.33;4.90;;;;;;;13.58;56.85;98967.59;5071805;28;20188;-81
2022/04/20 08:54:48;;;;;;;7.10;4.33;;;;;;;13.40;59.03;98971.72;5071123;28;20227;-80
2022/04/20 08:57:20;;;;;;;5.00;3.80;;;;;;;13.73;54.74;98968.22;5069565;28;20244;-80
2022/04/20 08:59:51;;;;;;;13.27;8.00;;;;;;;13.68;52.97;98971.22;5065080;28;20204;-80
2022/04/20 09:02:24;;;;;;;7.70;3.20;;;;;;;13.81;54.23;98971.13;5063067;28;20219;-81
2022/04/20 09:04:56;;;;;;;10.73;5.80;;;;;;;13.68;52.40;98975.69;5065173;28;20224;-81
2022/04/20 09:07:31;;;;;;;8.23;4.33;;;;;;;14.16;52.10;98973.56;5058770;28;20244;-81
2022/04/20 09:10:01;;;;;;;5.23;2.97;;;;;;;14.30;50.94;98970.63;5055866;28;20204;-81
2022/04/20 09:12:32;;;;;;;7.07;3.67;;;;;;;14.32;49.47;98963.34;5066317;28;20189;-80
2022/04/20 09:15:03;;;;;;;8.17;4.00;;;;;;;14.45;49.57;98954.38;5052699;28;20197;-80
2022/04/20 09:17:42;;;;;;;8.70;4.53;;;;;;;14.70;49.27;98955.84;5026570;28;20197;-80
2022/04/20 09:20:18;;;;;;;5.67;2.73;;;;;;;14.59;47.86;98952.25;4991792;28;20269;-81
2022/04/20 09:23:08;;;;;;;4.63;2.30;;;;;;;14.45;47.13;98949.03;5036851;28;20686;-81
2022/04/20 09:25:51;;;;;;;2.20;2.00;;;;;;;14.70;46.85;98947.84;5052327;28;20208;-81
2022/04/20 09:28:28;;;;;;;3.13;2.37;;;;;;;14.62;48.22;98944.97;5039844;28;20292;-82
2022/04/20 09:30:59;;;;;;;6.03;2.70;;;;;;;14.94;46.43;98943.06;5045337;28;20205;-80
2022/04/20 09:33:45;;;;;;;4.30;2.53;;;;;;;14.82;46.45;98939.63;5046734;28;20296;-81
2022/04/20 09:36:18;;;;;;;7.33;2.80;;;;;;;14.89;47.04;98938.16;5047085;28;20201;-80
2022/04/20 09:39:09;;;;;;;7.37;4.10;;;;;;;14.84;47.39;98935.00;5027993;28;20198;-81
2022/04/20 09:41:59;;;;;;;4.87;2.37;;;;;;;15.07;46.98;98921.53;5005131;28;20206;-81
2022/04/20 09:44:35;;;;;;;4.40;2.60;;;;;;;15.32;46.38;98930.91;4971625;28;20219;-82
2022/04/20 09:49:56;;;;;;;4.97;2.50;;;;;;;15.94;47.20;98920.06;4935310;29;20366;-81
2022/04/20 09:52:36;;;;;;;4.73;2.73;;;;;;;15.91;45.00;98924.81;4930434;29;20361;-81
2022/04/20 09:55:08;;;;;;;4.03;2.50;;;;;;;15.47;45.67;98908.22;4931310;29;20212;-81
2022/04/20 09:57:40;;;;;;;5.57;3.50;;;;;;;16.20;46.03;98915.00;4888711;29;20206;-81
2022/04/20 10:00:16;;;;;;;4.17;2.50;;;;;;;16.14;46.29;98912.06;4882658;29;20244;-81
2022/04/20 10:02:56;;;;;;;3.67;2.60;;;;;;;15.94;46.08;98912.03;4895513;29;20209;-81
2022/04/20 10:05:25;;;;;;;4.33;2.33;;;;;;;16.10;44.64;98908.81;4912596;29;20306;-82
2022/04/20 10:07:59;;;;;;;4.13;2.50;;;;;;;15.74;45.30;98910.31;4910819;29;20309;-82
2022/04/20 10:10:32;;;;;;;3.83;2.57;;;;;;;16.26;45.11;98902.94;4909140;29;20213;-82
2022/04/20 10:13:05;;;;;;;4.20;3.17;;;;;;;16.27;45.34;98894.75;4988973;28;20215;-82
2022/04/20 10:18:37;;;;;;;4.80;2.47;;;;;;;16.65;44.45;98893.03;5034949;28;20194;-82
2022/04/20 10:21:13;;;;;;;4.03;2.30;;;;;;;16.68;44.88;98890.09;5019150;28;20189;-82
2022/04/20 10:23:51;;;;;;;5.87;3.70;;;;;;;16.69;44.16;98881.09;4915759;29;20207;-82
2022/04/20 10:26:24;;;;;;;4.30;3.00;;;;;;;16.85;42.62;98883.19;4929606;29;20193;-81
2022/04/20 10:29:03;;;;;;;4.40;2.40;;;;;;;17.16;43.33;98875.75;4936200;29;20229;-81
2022/04/20 10:31:48;;;;;;;2.33;2.13;;;;;;;17.64;42.62;98872.84;4929712;29;20204;-79
2022/04/20 10:34:21;;;;;;;4.63;2.60;;;;;;;17.76;41.08;98865.50;4877748;29;20290;-82
2022/04/20 10:37:00;;;;;;;3.00;2.47;;;;;;;17.26;40.73;98865.84;4865677;29;20240;-81
2022/04/20 10:39:38;;;;;;;3.83;2.40;;;;;;;17.27;41.32;98870.22;4860630;29;20237;-81
2022/04/20 10:42:20;;;;;;;5.50;2.70;;;;;;;17.37;39.87;98865.69;4836200;29;20202;-81
2022/04/20 10:45:07;;;;;;;3.00;2.30;;;;;;;17.65;40.90;98865.66;4877321;29;20280;-79
2022/04/20 10:47:42;;;;;;;2.77;2.20;;;;;;;18.04;41.97;98860.91;4843066;29;20279;-79
2022/04/20 10:50:21;;;;;;;3.83;2.90;;;;;;;17.64;41.52;98847.91;4830319;29;20274;-81
2022/04/20 10:52:57;;;;;;;3.97;2.80;;;;;;;17.95;39.43;98851.09;4854769;29;20199;-82
2022/04/20 10:55:57;;;;;;;3.90;2.40;;;;;;;17.80;40.43;98858.81;4904580;29;20305;-81
2022/04/20 10:58:28;;;;;;;2.80;2.47;;;;;;;17.81;40.04;98840.91;4914939;29;20198;-82
2022/04/20 11:01:15;;;;;;;3.17;2.20;;;;;;;18.10;39.65;98833.50;4910758;29;20270;-83
2022/04/20 11:04:05;;;;;;;4.20;2.97;;;;;;;17.47;40.55;98841.53;4916184;29;20200;-82
2022/04/20 11:07:18;;;;;;;2.60;2.40;;;;;;;18.29;39.33;98821.75;4943492;28;20196;-83
2022/04/20 11:10:13;;;;;;;4.70;2.40;;;;;;;17.82;39.54;98824.69;5004240;28;20261;-82
2022/04/20 11:19:20;;;;;;;3.63;2.60;;;;;;;18.11;41.33;98821.78;4927819;29;20193;-82
2022/04/20 11:21:55;;;;;;;5.67;2.27;;;;;;;18.67;39.20;98822.41;4952967;29;20239;-82
2022/04/20 11:24:32;;;;;;;3.07;2.30;;;;;;;18.83;37.51;98814.47;4928947;29;20700;-82
2022/04/20 11:27:06;;;;;;;2.37;2.17;;;;;;;19.02;37.70;98811.53;4959185;28;20196;-82
2022/04/20 11:29:47;;;;;;;2.43;2.23;;;;;;;19.15;36.38;98806.56;4969045;28;20219;-82
2022/04/20 11:32:15;;;;;;;4.50;2.50;;;;;;;18.99;37.67;98805.63;4960951;28;20224;-80
2022/04/20 11:34:47;;;;;;;4.77;2.57;;;;;;;19.15;36.09;98800.34;5023068;28;20196;-80
2022/04/20 11:37:17;;;;;;;5.10;2.37;;;;;;;18.66;36.93;98794.72;5027648;28;20198;-79
2022/04/20 11:39:58;;;;;;;3.20;2.40;;;;;;;19.04;37.77;98800.63;5026314;28;20194;-80
2022/04/20 11:42:33;;;;;;;3.43;2.33;;;;;;;19.07;37.67;98801.16;5016961;28;20692;-81
2022/04/20 11:45:06;;;;;;;2.60;2.40;;;;;;;19.39;37.29;98800.44;4981007;28;20301;-80
2022/04/20 11:47:42;;;;;;;4.33;2.20;;;;;;;19.16;36.00;98800.19;5019852;28;20206;-80
2022/04/20 11:50:11;;;;;;;2.83;2.50;;;;;;;18.95;37.17;98791.69;5051067;28;20214;-79
2022/04/20 11:52:40;;;;;;;3.20;2.00;;;;;;;19.85;36.76;98795.53;5059599;28;20201;-80
2022/04/20 11:55:12;;;;;;;2.67;2.20;;;;;;;19.63;36.91;98791.63;5057052;28;20283;-80
2022/04/20 11:58:12;;;;;;;3.10;2.37;;;;;;;19.60;36.44;98788.44;5036091;28;20276;-80
2022/04/20 12:00:43;;;;;;;5.10;2.43;;;;;;;20.16;36.44;98778.72;5032631;28;20196;-81
2022/04/20 12:03:12;;;;;;;4.13;2.60;;;;;;;20.02;35.58;98781.09;5030667;28;20624;-80
2022/04/20 12:05:41;;;;;;;3.60;2.30;;;;;;;19.78;36.08;98778.38;5024723;28;20201;-80
2022/04/20 12:08:10;;;;;;;5.23;2.60;;;;;;;19.89;36.11;98779.94;5034403;28;20285;-79
2022/04/20 12:10:40;;;;;;;2.87;2.23;;;;;;;20.16;34.76;98776.88;5034362;28;20222;-80
2022/04/20 12:13:10;;;;;;;3.10;2.30;;;;;;;20.11;35.89;98771.19;5029634;28;20225;-81
2022/04/20 12:15:38;;;;;;;4.60;2.30;;;;;;;19.87;37.30;98763.94;5027708;28;20202;-80
2022/04/20 12:18:07;;;;;;;3.10;2.80;;;;;;;19.26;37.05;98767.81;5032851;28;20272;-80
2022/04/20 12:20:36;;;;;;;2.83;2.47;;;;;;;20.05;37.38;98766.47;5032056;28;20193;-80
2022/04/20 12:23:08;;;;;;;4.63;2.60;;;;;;;19.46;38.20;98754.94;5060129;28;20204;-80
2022/04/20 12:25:42;;;;;;;2.87;2.50;;;;;;;20.12;38.30;98753.19;5076930;28;20230;-80
2022/04/20 12:31:01;;;;;;;3.30;2.30;;;;;;;20.57;35.63;98744.59;5064186;28;20208;-80
2022/04/20 12:33:30;;;;;;;4.17;2.40;;;;;;;20.53;36.42;98754.84;5071821;28;20192;-82